Terminal Aerodrome Forecast
Issued by NWS Atlanta, GA

Home | Current Version | Previous Version | Text Only | Print | Product List | Glossary On
Versions: 1 2 3 4 5 6 7 8 9 10 11 12 13 14 15 16 17 18 19 20 21 22 23 24 25 26 27 28 29
000
FTAK31 PAJN 040527
TAFAHN
TAF
PAHN 040527Z 0406/0506 30005KT P6SM BKN120
     FM041500 30013KT P6SM SCT150
     FM042000 30007KT P6SM SCT100
     FM042200 12007KT P6SM FEW100
     FM050300 12003KT P6SM FEW100
      AMD LTD TO CLD VIS AND WIND=

USA.gov is the U.S. government's official web portal to all federal, state and local government web resources and services.